sensor_id;sensor_type;location;lat;lon;timestamp;temperature;humidity
66013;DHT22;52783;50.502;8.190;2023-07-08T00:02:10;21.80;99.90
66013;DHT22;52783;50.502;8.190;2023-07-08T00:04:37;21.80;99.90
66013;DHT22;52783;50.502;8.190;2023-07-08T00:07:02;21.70;99.90
66013;DHT22;52783;50.502;8.190;2023-07-08T00:09:28;21.70;99.90
66013;DHT22;52783;50.502;8.190;2023-07-08T00:11:55;21.80;99.90
66013;DHT22;52783;50.502;8.190;2023-07-08T00:14:22;21.80;99.90
66013;DHT22;52783;50.502;8.190;2023-07-08T00:16:47;21.70;99.90
66013;DHT22;52783;50.502;8.190;2023-07-08T00:19:13;21.70;99.90
66013;DHT22;52783;50.502;8.190;2023-07-08T00:21:39;21.60;99.90
66013;DHT22;52783;50.502;8.190;2023-07-08T00:24:04;21.60;99.90
66013;DHT22;52783;50.502;8.190;2023-07-08T00:26:30;21.50;99.90
66013;DHT22;52783;50.502;8.190;2023-07-08T00:28:56;21.50;99.90
66013;DHT22;52783;50.502;8.190;2023-07-08T00:31:23;21.50;99.90
66013;DHT22;52783;50.502;8.190;2023-07-08T00:33:53;21.50;99.90
66013;DHT22;52783;50.502;8.190;2023-07-08T00:36:21;21.40;99.90
66013;DHT22;52783;50.502;8.190;2023-07-08T00:38:47;21.30;99.90
66013;DHT22;52783;50.502;8.190;2023-07-08T00:41:35;21.30;99.90
66013;DHT22;52783;50.502;8.190;2023-07-08T00:44:01;21.20;99.90
66013;DHT22;52783;50.502;8.190;2023-07-08T00:51:38;20.60;99.90
66013;DHT22;52783;50.502;8.190;2023-07-08T00:54:11;20.40;99.90
66013;DHT22;52783;50.502;8.190;2023-07-08T00:59:19;20.20;99.90
66013;DHT22;52783;50.502;8.190;2023-07-08T01:01:46;20.20;99.90
66013;DHT22;52783;50.502;8.190;2023-07-08T01:04:28;20.20;99.90
66013;DHT22;52783;50.502;8.190;2023-07-08T01:06:57;20.20;99.90
66013;DHT22;52783;50.502;8.190;2023-07-08T01:09:29;20.20;99.90
66013;DHT22;52783;50.502;8.190;2023-07-08T01:11:58;20.20;99.90
66013;DHT22;52783;50.502;8.190;2023-07-08T01:14:27;20.20;99.90
66013;DHT22;52783;50.502;8.190;2023-07-08T01:16:57;20.20;99.90
66013;DHT22;52783;50.502;8.190;2023-07-08T01:19:22;20.20;99.90
66013;DHT22;52783;50.502;8.190;2023-07-08T01:21:57;20.20;99.90
66013;DHT22;52783;50.502;8.190;2023-07-08T01:24:25;20.30;99.90
66013;DHT22;52783;50.502;8.190;2023-07-08T01:26:51;20.20;99.90
66013;DHT22;52783;50.502;8.190;2023-07-08T01:29:17;20.30;99.90
66013;DHT22;52783;50.502;8.190;2023-07-08T01:31:42;20.40;99.90
66013;DHT22;52783;50.502;8.190;2023-07-08T01:34:14;20.50;99.90
66013;DHT22;52783;50.502;8.190;2023-07-08T01:36:44;20.60;99.90
66013;DHT22;52783;50.502;8.190;2023-07-08T01:39:14;20.60;99.90
66013;DHT22;52783;50.502;8.190;2023-07-08T01:41:42;20.60;99.90
66013;DHT22;52783;50.502;8.190;2023-07-08T01:44:28;20.60;99.90
66013;DHT22;52783;50.502;8.190;2023-07-08T01:46:56;20.60;99.90
66013;DHT22;52783;50.502;8.190;2023-07-08T01:49:23;20.50;99.90
66013;DHT22;52783;50.502;8.190;2023-07-08T01:51:49;20.50;99.90
66013;DHT22;52783;50.502;8.190;2023-07-08T01:54:15;20.50;99.90
66013;DHT22;52783;50.502;8.190;2023-07-08T01:56:41;20.50;99.90
66013;DHT22;52783;50.502;8.190;2023-07-08T01:59:06;20.50;99.90
66013;DHT22;52783;50.502;8.190;2023-07-08T02:01:32;20.50;99.90
66013;DHT22;52783;50.502;8.190;2023-07-08T02:03:57;20.40;99.90
66013;DHT22;52783;50.502;8.190;2023-07-08T02:06:23;20.40;99.90
66013;DHT22;52783;50.502;8.190;2023-07-08T02:08:48;20.40;99.90
66013;DHT22;52783;50.502;8.190;2023-07-08T02:11:16;20.40;99.90
66013;DHT22;52783;50.502;8.190;2023-07-08T02:13:42;20.30;99.90
66013;DHT22;52783;50.502;8.190;2023-07-08T02:16:07;20.30;99.90
66013;DHT22;52783;50.502;8.190;2023-07-08T02:18:33;20.30;99.90
66013;DHT22;52783;50.502;8.190;2023-07-08T02:20:58;20.30;99.90
66013;DHT22;52783;50.502;8.190;2023-07-08T02:23:25;20.30;99.90
66013;DHT22;52783;50.502;8.190;2023-07-08T02:25:52;20.20;99.90
66013;DHT22;52783;50.502;8.190;2023-07-08T02:28:18;20.20;99.90
66013;DHT22;52783;50.502;8.190;2023-07-08T02:30:43;20.20;99.90
66013;DHT22;52783;50.502;8.190;2023-07-08T02:33:09;20.20;99.90
66013;DHT22;52783;50.502;8.190;2023-07-08T02:35:35;20.10;99.90
66013;DHT22;52783;50.502;8.190;2023-07-08T02:38:00;20.00;99.90
66013;DHT22;52783;50.502;8.190;2023-07-08T02:40:26;19.90;99.90
66013;DHT22;52783;50.502;8.190;2023-07-08T02:42:51;19.80;99.90
66013;DHT22;52783;50.502;8.190;2023-07-08T02:45:18;19.80;99.90
66013;DHT22;52783;50.502;8.190;2023-07-08T02:47:44;19.90;99.90
66013;DHT22;52783;50.502;8.190;2023-07-08T02:50:10;19.90;99.90
66013;DHT22;52783;50.502;8.190;2023-07-08T02:52:36;19.90;99.90
66013;DHT22;52783;50.502;8.190;2023-07-08T02:55:03;19.90;99.90
66013;DHT22;52783;50.502;8.190;2023-07-08T02:57:28;20.00;99.90
66013;DHT22;52783;50.502;8.190;2023-07-08T02:59:54;19.90;99.90
66013;DHT22;52783;50.502;8.190;2023-07-08T03:02:21;19.90;99.90
66013;DHT22;52783;50.502;8.190;2023-07-08T03:04:48;20.00;99.90
66013;DHT22;52783;50.502;8.190;2023-07-08T03:07:15;19.90;99.90
66013;DHT22;52783;50.502;8.190;2023-07-08T03:09:41;19.90;99.90
66013;DHT22;52783;50.502;8.190;2023-07-08T03:12:08;20.00;99.90
66013;DHT22;52783;50.502;8.190;2023-07-08T03:14:34;20.00;99.90
66013;DHT22;52783;50.502;8.190;2023-07-08T03:17:00;19.90;99.90
66013;DHT22;52783;50.502;8.190;2023-07-08T03:19:25;19.90;99.90
66013;DHT22;52783;50.502;8.190;2023-07-08T03:21:51;19.90;99.90
66013;DHT22;52783;50.502;8.190;2023-07-08T03:24:17;19.90;99.90
66013;DHT22;52783;50.502;8.190;2023-07-08T03:26:46;19.90;99.90
66013;DHT22;52783;50.502;8.190;2023-07-08T03:29:15;20.00;99.90
66013;DHT22;52783;50.502;8.190;2023-07-08T03:31:41;20.00;99.90
66013;DHT22;52783;50.502;8.190;2023-07-08T03:34:10;20.00;99.90
66013;DHT22;52783;50.502;8.190;2023-07-08T03:36:36;20.00;99.90
66013;DHT22;52783;50.502;8.190;2023-07-08T03:39:05;19.90;99.90
66013;DHT22;52783;50.502;8.190;2023-07-08T03:41:30;20.00;99.90
66013;DHT22;52783;50.502;8.190;2023-07-08T03:43:56;19.90;99.90
66013;DHT22;52783;50.502;8.190;2023-07-08T03:46:21;19.90;99.90
66013;DHT22;52783;50.502;8.190;2023-07-08T03:48:48;20.00;99.90
66013;DHT22;52783;50.502;8.190;2023-07-08T03:51:27;20.00;99.90
66013;DHT22;52783;50.502;8.190;2023-07-08T03:53:54;20.10;99.90
66013;DHT22;52783;50.502;8.190;2023-07-08T03:56:19;20.10;99.90
66013;DHT22;52783;50.502;8.190;2023-07-08T03:58:45;20.00;99.90
66013;DHT22;52783;50.502;8.190;2023-07-08T04:01:16;19.90;99.90
66013;DHT22;52783;50.502;8.190;2023-07-08T04:03:42;19.80;99.90
66013;DHT22;52783;50.502;8.190;2023-07-08T04:06:08;19.80;99.90
66013;DHT22;52783;50.502;8.190;2023-07-08T04:08:33;19.80;99.90
66013;DHT22;52783;50.502;8.190;2023-07-08T04:10:59;19.70;99.90
66013;DHT22;52783;50.502;8.190;2023-07-08T04:13:24;19.70;99.90
66013;DHT22;52783;50.502;8.190;2023-07-08T04:15:59;19.70;99.90
66013;DHT22;52783;50.502;8.190;2023-07-08T04:18:25;19.60;99.90
66013;DHT22;52783;50.502;8.190;2023-07-08T04:20:50;19.60;99.90
66013;DHT22;52783;50.502;8.190;2023-07-08T04:23:21;19.60;99.90
66013;DHT22;52783;50.502;8.190;2023-07-08T04:25:48;19.70;99.90
66013;DHT22;52783;50.502;8.190;2023-07-08T04:28:14;19.70;99.90
66013;DHT22;52783;50.502;8.190;2023-07-08T04:30:40;19.80;99.90
66013;DHT22;52783;50.502;8.190;2023-07-08T04:33:13;20.00;99.90
66013;DHT22;52783;50.502;8.190;2023-07-08T04:35:41;20.00;99.90
66013;DHT22;52783;50.502;8.190;2023-07-08T04:38:17;20.30;99.90
66013;DHT22;52783;50.502;8.190;2023-07-08T04:40:43;20.40;99.90
66013;DHT22;52783;50.502;8.190;2023-07-08T04:43:09;20.30;99.90
66013;DHT22;52783;50.502;8.190;2023-07-08T04:45:36;20.10;99.90
66013;DHT22;52783;50.502;8.190;2023-07-08T04:48:03;20.10;99.90
66013;DHT22;52783;50.502;8.190;2023-07-08T04:50:34;20.10;99.90
66013;DHT22;52783;50.502;8.190;2023-07-08T04:52:59;20.10;99.90
66013;DHT22;52783;50.502;8.190;2023-07-08T04:55:25;20.30;99.90
66013;DHT22;52783;50.502;8.190;2023-07-08T04:57:51;20.50;99.90
66013;DHT22;52783;50.502;8.190;2023-07-08T05:00:17;20.30;99.90
66013;DHT22;52783;50.502;8.190;2023-07-08T05:02:45;20.20;99.90
66013;DHT22;52783;50.502;8.190;2023-07-08T05:05:10;20.30;99.90
66013;DHT22;52783;50.502;8.190;2023-07-08T05:07:36;20.30;99.90
66013;DHT22;52783;50.502;8.190;2023-07-08T05:10:01;20.40;99.90
66013;DHT22;52783;50.502;8.190;2023-07-08T05:12:27;20.50;99.90
66013;DHT22;52783;50.502;8.190;2023-07-08T05:14:53;20.30;99.90
66013;DHT22;52783;50.502;8.190;2023-07-08T05:17:18;20.20;99.90
66013;DHT22;52783;50.502;8.190;2023-07-08T05:19:44;20.40;99.90
66013;DHT22;52783;50.502;8.190;2023-07-08T05:22:11;20.40;99.90
66013;DHT22;52783;50.502;8.190;2023-07-08T05:24:37;20.30;99.90
66013;DHT22;52783;50.502;8.190;2023-07-08T05:27:03;20.20;99.90
66013;DHT22;52783;50.502;8.190;2023-07-08T05:29:29;20.10;99.90
66013;DHT22;52783;50.502;8.190;2023-07-08T05:31:55;20.00;99.90
66013;DHT22;52783;50.502;8.190;2023-07-08T05:34:20;19.90;99.90
66013;DHT22;52783;50.502;8.190;2023-07-08T05:36:46;20.00;99.90
66013;DHT22;52783;50.502;8.190;2023-07-08T05:39:12;20.00;99.90
66013;DHT22;52783;50.502;8.190;2023-07-08T05:41:37;20.00;99.90
66013;DHT22;52783;50.502;8.190;2023-07-08T05:44:03;20.90;99.90
66013;DHT22;52783;50.502;8.190;2023-07-08T05:46:29;21.50;99.90
66013;DHT22;52783;50.502;8.190;2023-07-08T05:48:54;22.10;99.90
66013;DHT22;52783;50.502;8.190;2023-07-08T05:51:20;22.50;99.90
66013;DHT22;52783;50.502;8.190;2023-07-08T05:53:46;22.60;99.90
66013;DHT22;52783;50.502;8.190;2023-07-08T05:56:11;22.90;99.90
66013;DHT22;52783;50.502;8.190;2023-07-08T05:58:37;23.20;99.90
66013;DHT22;52783;50.502;8.190;2023-07-08T06:01:03;23.80;99.90
66013;DHT22;52783;50.502;8.190;2023-07-08T06:03:28;23.90;99.90
66013;DHT22;52783;50.502;8.190;2023-07-08T06:05:54;23.90;99.90
66013;DHT22;52783;50.502;8.190;2023-07-08T06:08:20;24.00;99.90
66013;DHT22;52783;50.502;8.190;2023-07-08T06:10:46;24.60;99.90
66013;DHT22;52783;50.502;8.190;2023-07-08T06:13:12;24.70;99.90
66013;DHT22;52783;50.502;8.190;2023-07-08T06:15:38;24.20;99.90
66013;DHT22;52783;50.502;8.190;2023-07-08T06:18:04;24.00;99.90
66013;DHT22;52783;50.502;8.190;2023-07-08T06:20:29;24.00;99.90
66013;DHT22;52783;50.502;8.190;2023-07-08T06:22:55;24.10;99.90
66013;DHT22;52783;50.502;8.190;2023-07-08T06:25:21;24.00;99.90
66013;DHT22;52783;50.502;8.190;2023-07-08T06:27:46;24.10;99.90
66013;DHT22;52783;50.502;8.190;2023-07-08T06:30:12;23.90;99.90
66013;DHT22;52783;50.502;8.190;2023-07-08T06:32:38;23.90;99.90
66013;DHT22;52783;50.502;8.190;2023-07-08T06:35:04;23.80;99.90
66013;DHT22;52783;50.502;8.190;2023-07-08T06:37:29;23.90;99.90
66013;DHT22;52783;50.502;8.190;2023-07-08T06:39:55;24.00;99.90
66013;DHT22;52783;50.502;8.190;2023-07-08T06:42:20;24.00;99.90
66013;DHT22;52783;50.502;8.190;2023-07-08T06:44:46;24.10;99.90
66013;DHT22;52783;50.502;8.190;2023-07-08T06:47:19;24.20;99.90
66013;DHT22;52783;50.502;8.190;2023-07-08T06:49:46;24.20;99.90
66013;DHT22;52783;50.502;8.190;2023-07-08T06:52:11;24.20;99.90
66013;DHT22;52783;50.502;8.190;2023-07-08T06:54:37;25.10;99.90
66013;DHT22;52783;50.502;8.190;2023-07-08T06:57:03;25.00;99.90
66013;DHT22;52783;50.502;8.190;2023-07-08T06:59:28;24.90;99.90
66013;DHT22;52783;50.502;8.190;2023-07-08T07:01:54;24.80;99.90
66013;DHT22;52783;50.502;8.190;2023-07-08T07:04:19;24.70;99.90
66013;DHT22;52783;50.502;8.190;2023-07-08T07:06:45;24.30;99.90
66013;DHT22;52783;50.502;8.190;2023-07-08T07:09:11;24.30;99.90
66013;DHT22;52783;50.502;8.190;2023-07-08T07:11:36;24.20;99.90
66013;DHT22;52783;50.502;8.190;2023-07-08T07:14:02;24.30;99.90
66013;DHT22;52783;50.502;8.190;2023-07-08T07:16:27;23.80;99.90
66013;DHT22;52783;50.502;8.190;2023-07-08T07:18:53;23.60;99.90
66013;DHT22;52783;50.502;8.190;2023-07-08T07:21:19;23.50;99.90
66013;DHT22;52783;50.502;8.190;2023-07-08T07:23:44;23.10;99.90
66013;DHT22;52783;50.502;8.190;2023-07-08T07:26:10;22.90;99.90
66013;DHT22;52783;50.502;8.190;2023-07-08T07:28:35;22.90;99.90
66013;DHT22;52783;50.502;8.190;2023-07-08T07:31:01;22.90;99.90
66013;DHT22;52783;50.502;8.190;2023-07-08T07:33:27;22.80;99.90
66013;DHT22;52783;50.502;8.190;2023-07-08T07:35:52;23.60;99.90
66013;DHT22;52783;50.502;8.190;2023-07-08T07:38:18;24.80;99.90
66013;DHT22;52783;50.502;8.190;2023-07-08T07:40:44;25.50;99.90
66013;DHT22;52783;50.502;8.190;2023-07-08T07:43:10;26.30;99.90
66013;DHT22;52783;50.502;8.190;2023-07-08T07:45:36;27.00;99.90
66013;DHT22;52783;50.502;8.190;2023-07-08T07:48:02;27.00;99.90
66013;DHT22;52783;50.502;8.190;2023-07-08T07:50:27;27.30;99.90
66013;DHT22;52783;50.502;8.190;2023-07-08T07:52:53;27.90;99.90
66013;DHT22;52783;50.502;8.190;2023-07-08T07:55:18;28.00;99.90
66013;DHT22;52783;50.502;8.190;2023-07-08T07:57:44;27.20;99.90
66013;DHT22;52783;50.502;8.190;2023-07-08T08:00:11;27.50;99.90
66013;DHT22;52783;50.502;8.190;2023-07-08T08:02:39;28.30;99.90
66013;DHT22;52783;50.502;8.190;2023-07-08T08:05:05;27.70;99.90
66013;DHT22;52783;50.502;8.190;2023-07-08T08:07:31;27.60;99.90
66013;DHT22;52783;50.502;8.190;2023-07-08T08:09:56;27.50;99.90
66013;DHT22;52783;50.502;8.190;2023-07-08T08:12:22;27.90;99.90
66013;DHT22;52783;50.502;8.190;2023-07-08T08:14:53;28.10;99.90
66013;DHT22;52783;50.502;8.190;2023-07-08T08:17:18;28.80;99.90
66013;DHT22;52783;50.502;8.190;2023-07-08T08:19:44;28.70;99.90
66013;DHT22;52783;50.502;8.190;2023-07-08T08:22:09;29.70;99.90
66013;DHT22;52783;50.502;8.190;2023-07-08T08:24:35;30.10;99.90
66013;DHT22;52783;50.502;8.190;2023-07-08T08:27:01;31.00;99.90
66013;DHT22;52783;50.502;8.190;2023-07-08T08:29:27;28.90;99.90
66013;DHT22;52783;50.502;8.190;2023-07-08T08:31:52;28.60;99.90
66013;DHT22;52783;50.502;8.190;2023-07-08T08:34:19;28.30;99.90
66013;DHT22;52783;50.502;8.190;2023-07-08T08:36:45;28.20;99.90
66013;DHT22;52783;50.502;8.190;2023-07-08T08:39:11;28.60;99.90
66013;DHT22;52783;50.502;8.190;2023-07-08T08:41:38;29.10;99.90
66013;DHT22;52783;50.502;8.190;2023-07-08T08:44:08;29.00;99.90
66013;DHT22;52783;50.502;8.190;2023-07-08T08:46:45;28.70;99.90
66013;DHT22;52783;50.502;8.190;2023-07-08T08:49:23;29.20;99.90
66013;DHT22;52783;50.502;8.190;2023-07-08T08:51:51;30.50;99.90
66013;DHT22;52783;50.502;8.190;2023-07-08T08:54:17;30.80;99.90
66013;DHT22;52783;50.502;8.190;2023-07-08T09:02:39;30.80;99.90
66013;DHT22;52783;50.502;8.190;2023-07-08T09:05:11;31.30;99.90
66013;DHT22;52783;50.502;8.190;2023-07-08T09:11:01;29.90;99.90
66013;DHT22;52783;50.502;8.190;2023-07-08T09:13:32;30.80;99.90
66013;DHT22;52783;50.502;8.190;2023-07-08T09:21:28;31.10;99.90
66013;DHT22;52783;50.502;8.190;2023-07-08T09:23:59;31.60;99.90
66013;DHT22;52783;50.502;8.190;2023-07-08T09:26:27;31.60;99.90
66013;DHT22;52783;50.502;8.190;2023-07-08T09:28:54;32.00;99.90
66013;DHT22;52783;50.502;8.190;2023-07-08T09:33:51;33.00;99.90
66013;DHT22;52783;50.502;8.190;2023-07-08T09:36:18;32.30;99.90
66013;DHT22;52783;50.502;8.190;2023-07-08T09:38:48;31.00;99.90
66013;DHT22;52783;50.502;8.190;2023-07-08T09:41:28;30.90;99.90
66013;DHT22;52783;50.502;8.190;2023-07-08T09:46:38;29.80;99.90
66013;DHT22;52783;50.502;8.190;2023-07-08T09:49:17;30.10;99.90
66013;DHT22;52783;50.502;8.190;2023-07-08T09:51:44;30.10;99.90
66013;DHT22;52783;50.502;8.190;2023-07-08T09:54:09;30.50;99.90
66013;DHT22;52783;50.502;8.190;2023-07-08T09:56:40;30.30;99.90
66013;DHT22;52783;50.502;8.190;2023-07-08T09:59:11;30.20;99.90
66013;DHT22;52783;50.502;8.190;2023-07-08T10:01:37;30.60;99.90
66013;DHT22;52783;50.502;8.190;2023-07-08T10:04:03;30.50;99.90
66013;DHT22;52783;50.502;8.190;2023-07-08T10:06:31;31.50;99.90
66013;DHT22;52783;50.502;8.190;2023-07-08T10:09:09;31.90;99.90
66013;DHT22;52783;50.502;8.190;2023-07-08T10:11:41;32.90;99.90
66013;DHT22;52783;50.502;8.190;2023-07-08T10:14:31;32.90;99.90
66013;DHT22;52783;50.502;8.190;2023-07-08T10:16:57;33.40;99.90
66013;DHT22;52783;50.502;8.190;2023-07-08T10:19:23;31.90;99.90
66013;DHT22;52783;50.502;8.190;2023-07-08T10:22:02;32.30;99.90
66013;DHT22;52783;50.502;8.190;2023-07-08T10:24:42;31.80;99.90
66013;DHT22;52783;50.502;8.190;2023-07-08T10:30:25;31.80;99.90
66013;DHT22;52783;50.502;8.190;2023-07-08T10:38:31;29.90;99.90
66013;DHT22;52783;50.502;8.190;2023-07-08T10:41:39;29.70;99.90
66013;DHT22;52783;50.502;8.190;2023-07-08T10:44:19;29.50;99.90
66013;DHT22;52783;50.502;8.190;2023-07-08T10:50:35;28.40;99.90
66013;DHT22;52783;50.502;8.190;2023-07-08T10:53:35;28.70;99.90
66013;DHT22;52783;50.502;8.190;2023-07-08T11:09:13;29.10;99.90
66013;DHT22;52783;50.502;8.190;2023-07-08T11:11:51;29.20;99.90
66013;DHT22;52783;50.502;8.190;2023-07-08T11:14:25;28.80;99.90
66013;DHT22;52783;50.502;8.190;2023-07-08T11:17:09;29.40;99.90
66013;DHT22;52783;50.502;8.190;2023-07-08T11:19:40;29.30;99.90
66013;DHT22;52783;50.502;8.190;2023-07-08T11:22:11;29.40;99.90
66013;DHT22;52783;50.502;8.190;2023-07-08T11:24:51;29.20;99.90
66013;DHT22;52783;50.502;8.190;2023-07-08T11:27:20;29.60;99.90
66013;DHT22;52783;50.502;8.190;2023-07-08T11:29:59;29.40;99.90
66013;DHT22;52783;50.502;8.190;2023-07-08T11:32:30;29.60;99.90
66013;DHT22;52783;50.502;8.190;2023-07-08T11:34:57;29.90;99.90
66013;DHT22;52783;50.502;8.190;2023-07-08T11:37:24;29.80;99.90
66013;DHT22;52783;50.502;8.190;2023-07-08T11:40:15;30.10;99.90
66013;DHT22;52783;50.502;8.190;2023-07-08T11:42:43;30.00;99.90
66013;DHT22;52783;50.502;8.190;2023-07-08T11:45:30;29.70;99.90
66013;DHT22;52783;50.502;8.190;2023-07-08T11:50:32;30.00;99.90
66013;DHT22;52783;50.502;8.190;2023-07-08T11:55:48;30.00;99.90
66013;DHT22;52783;50.502;8.190;2023-07-08T11:58:24;30.20;99.90
66013;DHT22;52783;50.502;8.190;2023-07-08T12:03:35;30.10;99.90
66013;DHT22;52783;50.502;8.190;2023-07-08T12:06:02;30.10;99.90
66013;DHT22;52783;50.502;8.190;2023-07-08T12:08:36;30.20;99.90
66013;DHT22;52783;50.502;8.190;2023-07-08T12:11:03;30.20;99.90
66013;DHT22;52783;50.502;8.190;2023-07-08T12:13:29;30.50;99.90
66013;DHT22;52783;50.502;8.190;2023-07-08T12:15:55;30.30;99.90
66013;DHT22;52783;50.502;8.190;2023-07-08T12:18:35;30.20;99.90
66013;DHT22;52783;50.502;8.190;2023-07-08T12:21:02;30.80;99.90
66013;DHT22;52783;50.502;8.190;2023-07-08T12:23:28;30.90;99.90
66013;DHT22;52783;50.502;8.190;2023-07-08T12:25:55;31.10;99.90
66013;DHT22;52783;50.502;8.190;2023-07-08T12:28:22;31.20;99.90
66013;DHT22;52783;50.502;8.190;2023-07-08T12:30:49;31.10;99.90
66013;DHT22;52783;50.502;8.190;2023-07-08T12:33:28;31.20;99.90
66013;DHT22;52783;50.502;8.190;2023-07-08T12:35:55;31.00;99.90
66013;DHT22;52783;50.502;8.190;2023-07-08T12:38:30;31.00;99.90
66013;DHT22;52783;50.502;8.190;2023-07-08T12:40:58;31.00;99.90
66013;DHT22;52783;50.502;8.190;2023-07-08T12:43:25;31.40;99.90
66013;DHT22;52783;50.502;8.190;2023-07-08T12:45:50;31.60;99.90
66013;DHT22;52783;50.502;8.190;2023-07-08T12:48:16;31.30;99.90
66013;DHT22;52783;50.502;8.190;2023-07-08T12:50:41;31.50;99.90
66013;DHT22;52783;50.502;8.190;2023-07-08T12:53:07;31.50;99.90
66013;DHT22;52783;50.502;8.190;2023-07-08T12:55:38;31.50;99.90
66013;DHT22;52783;50.502;8.190;2023-07-08T12:58:04;31.20;99.90
66013;DHT22;52783;50.502;8.190;2023-07-08T13:00:34;31.30;99.90
66013;DHT22;52783;50.502;8.190;2023-07-08T13:03:17;31.40;99.90
66013;DHT22;52783;50.502;8.190;2023-07-08T13:05:44;31.40;99.90
66013;DHT22;52783;50.502;8.190;2023-07-08T13:08:14;31.80;99.90
66013;DHT22;52783;50.502;8.190;2023-07-08T13:10:41;32.20;99.90
66013;DHT22;52783;50.502;8.190;2023-07-08T13:13:20;32.60;99.90
66013;DHT22;52783;50.502;8.190;2023-07-08T13:15:46;32.70;99.90
66013;DHT22;52783;50.502;8.190;2023-07-08T13:18:28;32.40;99.90
66013;DHT22;52783;50.502;8.190;2023-07-08T13:20:55;32.30;99.90
66013;DHT22;52783;50.502;8.190;2023-07-08T13:23:22;32.10;99.90
66013;DHT22;52783;50.502;8.190;2023-07-08T13:25:50;32.30;99.90
66013;DHT22;52783;50.502;8.190;2023-07-08T13:28:24;32.70;99.90
66013;DHT22;52783;50.502;8.190;2023-07-08T13:31:00;32.80;99.90
66013;DHT22;52783;50.502;8.190;2023-07-08T13:33:32;32.80;99.90
66013;DHT22;52783;50.502;8.190;2023-07-08T13:35:58;32.90;99.90
66013;DHT22;52783;50.502;8.190;2023-07-08T13:38:32;32.70;99.90
66013;DHT22;52783;50.502;8.190;2023-07-08T13:41:04;32.00;99.90
66013;DHT22;52783;50.502;8.190;2023-07-08T13:43:33;31.80;99.90
66013;DHT22;52783;50.502;8.190;2023-07-08T13:45:59;32.30;99.90
66013;DHT22;52783;50.502;8.190;2023-07-08T13:48:38;32.40;99.90
66013;DHT22;52783;50.502;8.190;2023-07-08T13:51:09;32.70;99.90
66013;DHT22;52783;50.502;8.190;2023-07-08T13:56:22;32.80;99.90
66013;DHT22;52783;50.502;8.190;2023-07-08T13:59:00;32.70;99.90
66013;DHT22;52783;50.502;8.190;2023-07-08T14:01:27;32.90;99.90
66013;DHT22;52783;50.502;8.190;2023-07-08T14:03:54;33.10;99.90
66013;DHT22;52783;50.502;8.190;2023-07-08T14:06:23;32.70;99.90
66013;DHT22;52783;50.502;8.190;2023-07-08T14:08:55;32.70;99.90
66013;DHT22;52783;50.502;8.190;2023-07-08T14:11:21;32.90;99.90
66013;DHT22;52783;50.502;8.190;2023-07-08T14:13:47;33.00;99.90
66013;DHT22;52783;50.502;8.190;2023-07-08T14:16:39;33.00;99.90
66013;DHT22;52783;50.502;8.190;2023-07-08T14:19:07;33.10;99.90
66013;DHT22;52783;50.502;8.190;2023-07-08T14:21:36;33.10;99.90
66013;DHT22;52783;50.502;8.190;2023-07-08T14:24:01;32.80;99.90
66013;DHT22;52783;50.502;8.190;2023-07-08T14:26:29;33.00;99.90
66013;DHT22;52783;50.502;8.190;2023-07-08T14:28:54;33.10;99.90
66013;DHT22;52783;50.502;8.190;2023-07-08T14:31:25;32.90;99.90
66013;DHT22;52783;50.502;8.190;2023-07-08T14:33:53;32.70;99.90
66013;DHT22;52783;50.502;8.190;2023-07-08T14:36:23;32.90;99.90
66013;DHT22;52783;50.502;8.190;2023-07-08T14:38:48;33.10;99.90
66013;DHT22;52783;50.502;8.190;2023-07-08T14:41:14;32.50;99.90
66013;DHT22;52783;50.502;8.190;2023-07-08T14:43:39;32.70;99.90
66013;DHT22;52783;50.502;8.190;2023-07-08T14:46:05;32.90;99.90
66013;DHT22;52783;50.502;8.190;2023-07-08T14:48:32;32.90;99.90
66013;DHT22;52783;50.502;8.190;2023-07-08T14:50:58;33.00;99.90
66013;DHT22;52783;50.502;8.190;2023-07-08T14:53:24;33.00;99.90
66013;DHT22;52783;50.502;8.190;2023-07-08T14:55:52;32.10;99.90
66013;DHT22;52783;50.502;8.190;2023-07-08T14:58:28;32.30;99.90
66013;DHT22;52783;50.502;8.190;2023-07-08T15:00:55;32.70;99.90
66013;DHT22;52783;50.502;8.190;2023-07-08T15:03:22;32.90;99.90
66013;DHT22;52783;50.502;8.190;2023-07-08T15:05:48;32.80;99.90
66013;DHT22;52783;50.502;8.190;2023-07-08T15:08:14;32.90;99.90
66013;DHT22;52783;50.502;8.190;2023-07-08T15:10:44;32.80;99.90
66013;DHT22;52783;50.502;8.190;2023-07-08T15:13:10;32.80;99.90
66013;DHT22;52783;50.502;8.190;2023-07-08T15:15:36;32.90;99.90
66013;DHT22;52783;50.502;8.190;2023-07-08T15:18:06;32.90;99.90
66013;DHT22;52783;50.502;8.190;2023-07-08T15:20:35;33.10;99.90
66013;DHT22;52783;50.502;8.190;2023-07-08T15:23:00;33.00;99.90
66013;DHT22;52783;50.502;8.190;2023-07-08T15:25:26;33.10;99.90
66013;DHT22;52783;50.502;8.190;2023-07-08T15:27:53;33.20;99.90
66013;DHT22;52783;50.502;8.190;2023-07-08T15:30:22;33.20;99.90
66013;DHT22;52783;50.502;8.190;2023-07-08T15:32:48;33.20;99.90
66013;DHT22;52783;50.502;8.190;2023-07-08T15:35:19;32.80;99.90
66013;DHT22;52783;50.502;8.190;2023-07-08T15:37:45;33.00;99.90
66013;DHT22;52783;50.502;8.190;2023-07-08T15:40:16;32.90;99.90
66013;DHT22;52783;50.502;8.190;2023-07-08T15:42:44;32.40;99.90
66013;DHT22;52783;50.502;8.190;2023-07-08T15:45:22;32.40;99.90
66013;DHT22;52783;50.502;8.190;2023-07-08T15:47:47;32.70;99.90
66013;DHT22;52783;50.502;8.190;2023-07-08T15:50:15;32.70;99.90
66013;DHT22;52783;50.502;8.190;2023-07-08T15:52:41;32.70;99.90
66013;DHT22;52783;50.502;8.190;2023-07-08T15:55:09;32.60;99.90
66013;DHT22;52783;50.502;8.190;2023-07-08T15:57:43;32.40;99.90
66013;DHT22;52783;50.502;8.190;2023-07-08T16:00:24;32.20;99.90
66013;DHT22;52783;50.502;8.190;2023-07-08T16:02:58;32.30;99.90
66013;DHT22;52783;50.502;8.190;2023-07-08T16:05:25;32.40;99.90
66013;DHT22;52783;50.502;8.190;2023-07-08T16:07:52;32.10;99.90
66013;DHT22;52783;50.502;8.190;2023-07-08T16:10:19;31.90;99.90
66013;DHT22;52783;50.502;8.190;2023-07-08T16:12:45;32.00;99.90
66013;DHT22;52783;50.502;8.190;2023-07-08T16:15:21;32.40;99.90
66013;DHT22;52783;50.502;8.190;2023-07-08T16:17:50;32.00;99.90
66013;DHT22;52783;50.502;8.190;2023-07-08T16:20:20;32.40;99.90
66013;DHT22;52783;50.502;8.190;2023-07-08T16:22:46;32.20;99.90
66013;DHT22;52783;50.502;8.190;2023-07-08T16:25:16;32.40;99.90
66013;DHT22;52783;50.502;8.190;2023-07-08T16:27:44;32.10;99.90
66013;DHT22;52783;50.502;8.190;2023-07-08T16:30:15;32.00;99.90
66013;DHT22;52783;50.502;8.190;2023-07-08T16:32:41;32.10;99.90
66013;DHT22;52783;50.502;8.190;2023-07-08T16:35:12;32.20;99.90
66013;DHT22;52783;50.502;8.190;2023-07-08T16:37:38;32.40;99.90
66013;DHT22;52783;50.502;8.190;2023-07-08T16:40:05;32.60;99.90
66013;DHT22;52783;50.502;8.190;2023-07-08T16:42:34;32.70;99.90